Reinerton, Pennsylvania
Current Conditions -  °F | °C
As of 11:16 PM on Saturday 25 Oct 2014 (Local Time) from KMUI Reporting Station
Overcast Overcast  
Wind Chill: 57°   Ceiling: 6000
Heat Index: 57°   Visibility: 10mi
Dew Point: 55°   Wind: 1mph
Humidity: 94%   Direction: 290°WNW
Pressure: 29.64"   Gusts: NA
Location:  40.5383°N, 76.6127°W
Report Text: KMUI 260316Z AUTO 29001KT 10SM SCT048 BKN060 OVC070 14/13 A2964 RMK AO2 RAE0311DZB0311E0316 $
Loading
Personal Weather Stations






























Interactive Weather Map
Tropical Storm Tracking
New forecast layout! Learn more

10-Day Weather Forecast

Advertisements
Track Severe Weather on mobile